Terminal Aerodrome Forecast
Issued by NWS Northern Indiana

Home | Current Version | Previous Version | Graphics & Text | Print | Product List | Glossary Off
Versions: 1 2 3 4 5 6 7 8 9 10 11 12 13 14 15 16 17 18

000
FTUS43 KIWX 291028 AAB
TAFFWA
TAF AMD
KFWA 291028Z 2910/3006 04006KT 3SM -SHRA BR VCTS OVC004CB
     FM291500 05011KT 5SM -SHRA BR VCTS OVC015CB
     FM291900 06012KT 4SM SHRA BR VCTS OVC010CB=

USA.gov is the U.S. government's official web portal to all federal, state and local government web resources and services.